sensor_id;sensor_type;location;lat;lon;timestamp;temperature;humidity
35894;DHT22;21994;48.204;16.516;2022-10-24T00:00:48;12.80;99.90
35894;DHT22;21994;48.204;16.516;2022-10-24T00:03:14;12.80;99.90
35894;DHT22;21994;48.204;16.516;2022-10-24T00:05:41;12.80;99.90
35894;DHT22;21994;48.204;16.516;2022-10-24T00:08:15;12.70;99.90
35894;DHT22;21994;48.204;16.516;2022-10-24T00:10:43;12.80;99.90
35894;DHT22;21994;48.204;16.516;2022-10-24T00:13:11;12.80;99.90
35894;DHT22;21994;48.204;16.516;2022-10-24T00:15:38;12.80;99.90
35894;DHT22;21994;48.204;16.516;2022-10-24T00:18:04;12.80;99.90
35894;DHT22;21994;48.204;16.516;2022-10-24T00:20:30;12.80;99.90
35894;DHT22;21994;48.204;16.516;2022-10-24T00:22:56;12.80;99.90
35894;DHT22;21994;48.204;16.516;2022-10-24T00:25:22;12.80;99.90
35894;DHT22;21994;48.204;16.516;2022-10-24T00:27:47;12.70;99.90
35894;DHT22;21994;48.204;16.516;2022-10-24T00:30:13;12.80;99.90
35894;DHT22;21994;48.204;16.516;2022-10-24T00:32:39;12.80;99.90
35894;DHT22;21994;48.204;16.516;2022-10-24T00:35:05;12.80;99.90
35894;DHT22;21994;48.204;16.516;2022-10-24T00:37:32;12.80;99.90
35894;DHT22;21994;48.204;16.516;2022-10-24T00:39:57;12.80;99.90
35894;DHT22;21994;48.204;16.516;2022-10-24T00:42:23;12.80;99.90
35894;DHT22;21994;48.204;16.516;2022-10-24T00:44:51;12.80;99.90
35894;DHT22;21994;48.204;16.516;2022-10-24T00:47:23;12.80;99.90
35894;DHT22;21994;48.204;16.516;2022-10-24T00:50:03;12.80;99.90
35894;DHT22;21994;48.204;16.516;2022-10-24T00:52:41;12.80;99.90
35894;DHT22;21994;48.204;16.516;2022-10-24T00:55:08;12.80;99.90
35894;DHT22;21994;48.204;16.516;2022-10-24T01:00:18;12.80;99.90
35894;DHT22;21994;48.204;16.516;2022-10-24T01:02:46;12.80;99.90
35894;DHT22;21994;48.204;16.516;2022-10-24T01:05:13;12.70;99.90
35894;DHT22;21994;48.204;16.516;2022-10-24T01:07:55;12.80;99.90
35894;DHT22;21994;48.204;16.516;2022-10-24T01:13:37;12.80;99.90
35894;DHT22;21994;48.204;16.516;2022-10-24T01:18:47;12.70;99.90
35894;DHT22;21994;48.204;16.516;2022-10-24T01:21:51;12.70;99.90
35894;DHT22;21994;48.204;16.516;2022-10-24T01:24:43;12.70;99.90
35894;DHT22;21994;48.204;16.516;2022-10-24T01:28:26;12.70;99.90
35894;DHT22;21994;48.204;16.516;2022-10-24T01:30:43;12.70;99.90
35894;DHT22;21994;48.204;16.516;2022-10-24T01:33:20;12.70;99.90
35894;DHT22;21994;48.204;16.516;2022-10-24T01:35:54;12.70;99.90
35894;DHT22;21994;48.204;16.516;2022-10-24T01:38:33;12.70;99.90
35894;DHT22;21994;48.204;16.516;2022-10-24T01:41:08;12.70;99.90
35894;DHT22;21994;48.204;16.516;2022-10-24T01:46:34;12.60;99.90
35894;DHT22;21994;48.204;16.516;2022-10-24T01:49:17;12.60;99.90
35894;DHT22;21994;48.204;16.516;2022-10-24T01:51:47;12.70;99.90
35894;DHT22;21994;48.204;16.516;2022-10-24T01:54:16;12.70;99.90
35894;DHT22;21994;48.204;16.516;2022-10-24T01:56:42;12.80;99.90
35894;DHT22;21994;48.204;16.516;2022-10-24T02:02:11;12.70;99.90
35894;DHT22;21994;48.204;16.516;2022-10-24T02:05:09;12.70;99.90
35894;DHT22;21994;48.204;16.516;2022-10-24T02:07:46;12.80;99.90
35894;DHT22;21994;48.204;16.516;2022-10-24T02:10:26;12.90;99.90
35894;DHT22;21994;48.204;16.516;2022-10-24T02:13:11;12.80;99.90
35894;DHT22;21994;48.204;16.516;2022-10-24T02:15:53;12.80;99.90
35894;DHT22;21994;48.204;16.516;2022-10-24T02:18:21;12.80;99.90
35894;DHT22;21994;48.204;16.516;2022-10-24T02:20:54;12.80;99.90
35894;DHT22;21994;48.204;16.516;2022-10-24T02:23:38;12.80;99.90
35894;DHT22;21994;48.204;16.516;2022-10-24T02:26:16;12.90;99.90
35894;DHT22;21994;48.204;16.516;2022-10-24T02:28:57;13.00;99.90
35894;DHT22;21994;48.204;16.516;2022-10-24T02:31:26;13.10;99.90
35894;DHT22;21994;48.204;16.516;2022-10-24T02:33:59;13.10;99.90
35894;DHT22;21994;48.204;16.516;2022-10-24T02:36:27;13.20;99.90
35894;DHT22;21994;48.204;16.516;2022-10-24T02:38:54;13.30;99.90
35894;DHT22;21994;48.204;16.516;2022-10-24T02:41:27;13.40;99.90
35894;DHT22;21994;48.204;16.516;2022-10-24T02:43:56;13.40;99.90
35894;DHT22;21994;48.204;16.516;2022-10-24T02:46:24;13.40;99.90
35894;DHT22;21994;48.204;16.516;2022-10-24T02:48:54;13.50;99.90
35894;DHT22;21994;48.204;16.516;2022-10-24T02:51:26;13.50;99.90
35894;DHT22;21994;48.204;16.516;2022-10-24T02:53:53;13.40;99.90
35894;DHT22;21994;48.204;16.516;2022-10-24T02:56:19;13.60;99.90
35894;DHT22;21994;48.204;16.516;2022-10-24T02:58:45;13.60;99.90
35894;DHT22;21994;48.204;16.516;2022-10-24T03:01:11;13.60;99.90
35894;DHT22;21994;48.204;16.516;2022-10-24T03:03:37;13.70;99.90
35894;DHT22;21994;48.204;16.516;2022-10-24T03:06:03;13.60;99.90
35894;DHT22;21994;48.204;16.516;2022-10-24T03:08:29;13.50;99.90
35894;DHT22;21994;48.204;16.516;2022-10-24T03:10:55;13.50;99.90
35894;DHT22;21994;48.204;16.516;2022-10-24T03:13:21;13.50;99.90
35894;DHT22;21994;48.204;16.516;2022-10-24T03:15:47;13.50;99.90
35894;DHT22;21994;48.204;16.516;2022-10-24T03:18:12;13.50;99.90
35894;DHT22;21994;48.204;16.516;2022-10-24T03:20:38;13.40;99.90
35894;DHT22;21994;48.204;16.516;2022-10-24T03:23:04;13.40;99.90
35894;DHT22;21994;48.204;16.516;2022-10-24T03:25:30;13.40;99.90
35894;DHT22;21994;48.204;16.516;2022-10-24T03:27:56;13.50;99.90
35894;DHT22;21994;48.204;16.516;2022-10-24T03:30:22;13.50;99.90
35894;DHT22;21994;48.204;16.516;2022-10-24T03:32:48;13.50;99.90
35894;DHT22;21994;48.204;16.516;2022-10-24T03:35:14;13.40;99.90
35894;DHT22;21994;48.204;16.516;2022-10-24T03:37:41;13.40;99.90
35894;DHT22;21994;48.204;16.516;2022-10-24T03:40:08;13.30;99.90
35894;DHT22;21994;48.204;16.516;2022-10-24T03:42:35;13.40;99.90
35894;DHT22;21994;48.204;16.516;2022-10-24T03:45:01;13.20;99.90
35894;DHT22;21994;48.204;16.516;2022-10-24T03:47:27;13.10;99.90
35894;DHT22;21994;48.204;16.516;2022-10-24T03:49:53;13.00;99.90
35894;DHT22;21994;48.204;16.516;2022-10-24T03:52:19;13.10;99.90
35894;DHT22;21994;48.204;16.516;2022-10-24T03:54:44;13.00;99.90
35894;DHT22;21994;48.204;16.516;2022-10-24T03:57:10;12.80;99.90
35894;DHT22;21994;48.204;16.516;2022-10-24T03:59:37;12.80;99.90
35894;DHT22;21994;48.204;16.516;2022-10-24T04:02:03;12.70;99.90
35894;DHT22;21994;48.204;16.516;2022-10-24T04:04:30;12.60;99.90
35894;DHT22;21994;48.204;16.516;2022-10-24T04:06:56;12.50;99.90
35894;DHT22;21994;48.204;16.516;2022-10-24T04:09:23;12.60;99.90
35894;DHT22;21994;48.204;16.516;2022-10-24T04:11:48;12.60;99.90
35894;DHT22;21994;48.204;16.516;2022-10-24T04:14:15;12.70;99.90
35894;DHT22;21994;48.204;16.516;2022-10-24T04:16:41;12.70;99.90
35894;DHT22;21994;48.204;16.516;2022-10-24T04:19:07;12.60;99.90
35894;DHT22;21994;48.204;16.516;2022-10-24T04:21:35;12.50;99.90
35894;DHT22;21994;48.204;16.516;2022-10-24T04:24:01;12.60;99.90
35894;DHT22;21994;48.204;16.516;2022-10-24T04:26:27;12.50;99.90
35894;DHT22;21994;48.204;16.516;2022-10-24T04:28:53;12.40;99.90
35894;DHT22;21994;48.204;16.516;2022-10-24T04:31:19;12.50;99.90
35894;DHT22;21994;48.204;16.516;2022-10-24T04:33:45;12.30;99.90
35894;DHT22;21994;48.204;16.516;2022-10-24T04:36:11;12.20;99.90
35894;DHT22;21994;48.204;16.516;2022-10-24T04:38:37;12.00;99.90
35894;DHT22;21994;48.204;16.516;2022-10-24T04:41:06;12.10;99.90
35894;DHT22;21994;48.204;16.516;2022-10-24T04:43:32;12.00;99.90
35894;DHT22;21994;48.204;16.516;2022-10-24T04:45:58;11.90;99.90
35894;DHT22;21994;48.204;16.516;2022-10-24T04:48:24;11.80;99.90
35894;DHT22;21994;48.204;16.516;2022-10-24T04:50:50;11.70;99.90
35894;DHT22;21994;48.204;16.516;2022-10-24T04:53:16;11.70;99.90
35894;DHT22;21994;48.204;16.516;2022-10-24T04:55:43;11.60;99.90
35894;DHT22;21994;48.204;16.516;2022-10-24T04:58:09;11.50;99.90
35894;DHT22;21994;48.204;16.516;2022-10-24T05:00:34;11.50;99.90
35894;DHT22;21994;48.204;16.516;2022-10-24T05:03:01;11.50;99.90
35894;DHT22;21994;48.204;16.516;2022-10-24T05:05:27;11.40;99.90
35894;DHT22;21994;48.204;16.516;2022-10-24T05:07:52;11.40;99.90
35894;DHT22;21994;48.204;16.516;2022-10-24T05:10:18;11.40;99.90
35894;DHT22;21994;48.204;16.516;2022-10-24T05:12:44;11.40;99.90
35894;DHT22;21994;48.204;16.516;2022-10-24T05:15:11;11.40;99.90
35894;DHT22;21994;48.204;16.516;2022-10-24T05:17:38;11.30;99.90
35894;DHT22;21994;48.204;16.516;2022-10-24T05:20:04;11.40;99.90
35894;DHT22;21994;48.204;16.516;2022-10-24T05:22:32;11.40;99.90
35894;DHT22;21994;48.204;16.516;2022-10-24T05:24:58;11.40;99.90
35894;DHT22;21994;48.204;16.516;2022-10-24T05:27:23;11.40;99.90
35894;DHT22;21994;48.204;16.516;2022-10-24T05:29:53;11.40;99.90
35894;DHT22;21994;48.204;16.516;2022-10-24T05:32:20;11.40;99.90
35894;DHT22;21994;48.204;16.516;2022-10-24T05:34:48;11.40;99.90
35894;DHT22;21994;48.204;16.516;2022-10-24T05:37:14;11.20;99.90
35894;DHT22;21994;48.204;16.516;2022-10-24T05:39:40;11.10;99.90
35894;DHT22;21994;48.204;16.516;2022-10-24T05:42:07;11.10;99.90
35894;DHT22;21994;48.204;16.516;2022-10-24T05:44:35;11.10;99.90
35894;DHT22;21994;48.204;16.516;2022-10-24T05:47:02;11.10;99.90
35894;DHT22;21994;48.204;16.516;2022-10-24T05:49:27;11.10;99.90
35894;DHT22;21994;48.204;16.516;2022-10-24T05:51:53;11.20;99.90
35894;DHT22;21994;48.204;16.516;2022-10-24T05:54:19;11.20;99.90
35894;DHT22;21994;48.204;16.516;2022-10-24T05:56:45;11.10;99.90
35894;DHT22;21994;48.204;16.516;2022-10-24T05:59:11;11.10;99.90
35894;DHT22;21994;48.204;16.516;2022-10-24T06:01:37;11.10;99.90
35894;DHT22;21994;48.204;16.516;2022-10-24T06:04:03;11.10;99.90
35894;DHT22;21994;48.204;16.516;2022-10-24T06:06:29;11.20;99.90
35894;DHT22;21994;48.204;16.516;2022-10-24T06:08:54;11.30;99.90
35894;DHT22;21994;48.204;16.516;2022-10-24T06:11:20;11.40;99.90
35894;DHT22;21994;48.204;16.516;2022-10-24T06:13:46;11.40;99.90
35894;DHT22;21994;48.204;16.516;2022-10-24T06:16:12;11.50;99.90
35894;DHT22;21994;48.204;16.516;2022-10-24T06:18:38;11.70;99.90
35894;DHT22;21994;48.204;16.516;2022-10-24T06:21:06;11.70;99.90
35894;DHT22;21994;48.204;16.516;2022-10-24T06:23:34;11.70;99.90
35894;DHT22;21994;48.204;16.516;2022-10-24T06:26:00;11.70;99.90
35894;DHT22;21994;48.204;16.516;2022-10-24T06:28:27;11.70;99.90
35894;DHT22;21994;48.204;16.516;2022-10-24T06:30:53;11.70;99.90
35894;DHT22;21994;48.204;16.516;2022-10-24T06:33:19;11.70;99.90
35894;DHT22;21994;48.204;16.516;2022-10-24T06:35:46;11.90;99.90
35894;DHT22;21994;48.204;16.516;2022-10-24T06:38:12;12.00;99.90
35894;DHT22;21994;48.204;16.516;2022-10-24T06:40:38;11.90;99.90
35894;DHT22;21994;48.204;16.516;2022-10-24T06:43:06;12.10;99.90
35894;DHT22;21994;48.204;16.516;2022-10-24T06:45:32;12.20;99.90
35894;DHT22;21994;48.204;16.516;2022-10-24T06:47:58;12.30;99.90
35894;DHT22;21994;48.204;16.516;2022-10-24T06:50:23;12.30;99.90
35894;DHT22;21994;48.204;16.516;2022-10-24T06:52:49;12.30;99.90
35894;DHT22;21994;48.204;16.516;2022-10-24T06:55:15;12.40;99.90
35894;DHT22;21994;48.204;16.516;2022-10-24T06:57:41;12.50;99.90
35894;DHT22;21994;48.204;16.516;2022-10-24T07:00:07;12.80;99.90
35894;DHT22;21994;48.204;16.516;2022-10-24T07:02:34;12.70;99.90
35894;DHT22;21994;48.204;16.516;2022-10-24T07:05:00;12.80;99.90
35894;DHT22;21994;48.204;16.516;2022-10-24T07:07:26;12.80;99.90
35894;DHT22;21994;48.204;16.516;2022-10-24T07:09:56;13.00;99.90
35894;DHT22;21994;48.204;16.516;2022-10-24T07:12:23;13.20;99.90
35894;DHT22;21994;48.204;16.516;2022-10-24T07:14:49;13.10;99.90
35894;DHT22;21994;48.204;16.516;2022-10-24T07:17:16;13.20;99.90
35894;DHT22;21994;48.204;16.516;2022-10-24T07:19:43;13.30;99.90
35894;DHT22;21994;48.204;16.516;2022-10-24T07:22:09;13.30;99.90
35894;DHT22;21994;48.204;16.516;2022-10-24T07:24:35;13.30;99.90
35894;DHT22;21994;48.204;16.516;2022-10-24T07:27:01;13.40;99.90
35894;DHT22;21994;48.204;16.516;2022-10-24T07:29:27;13.40;99.90
35894;DHT22;21994;48.204;16.516;2022-10-24T07:31:53;13.30;99.90
35894;DHT22;21994;48.204;16.516;2022-10-24T07:34:19;13.30;99.90
35894;DHT22;21994;48.204;16.516;2022-10-24T07:36:45;13.30;99.90
35894;DHT22;21994;48.204;16.516;2022-10-24T07:39:12;13.50;99.90
35894;DHT22;21994;48.204;16.516;2022-10-24T07:41:39;13.80;99.90
35894;DHT22;21994;48.204;16.516;2022-10-24T07:44:07;13.90;99.90
35894;DHT22;21994;48.204;16.516;2022-10-24T07:46:33;14.00;99.90
35894;DHT22;21994;48.204;16.516;2022-10-24T07:48:59;13.90;99.90
35894;DHT22;21994;48.204;16.516;2022-10-24T07:51:25;13.90;99.90
35894;DHT22;21994;48.204;16.516;2022-10-24T07:53:53;14.10;99.90
35894;DHT22;21994;48.204;16.516;2022-10-24T07:56:19;14.20;99.90
35894;DHT22;21994;48.204;16.516;2022-10-24T07:58:46;14.30;99.90
35894;DHT22;21994;48.204;16.516;2022-10-24T08:01:16;14.50;99.90
35894;DHT22;21994;48.204;16.516;2022-10-24T08:03:44;14.40;99.90
35894;DHT22;21994;48.204;16.516;2022-10-24T08:06:14;14.30;99.90
35894;DHT22;21994;48.204;16.516;2022-10-24T08:08:41;14.40;99.90
35894;DHT22;21994;48.204;16.516;2022-10-24T08:11:09;14.40;99.90
35894;DHT22;21994;48.204;16.516;2022-10-24T08:13:39;14.60;99.90
35894;DHT22;21994;48.204;16.516;2022-10-24T08:16:07;14.60;99.90
35894;DHT22;21994;48.204;16.516;2022-10-24T08:18:35;14.60;99.90
35894;DHT22;21994;48.204;16.516;2022-10-24T08:21:03;14.70;99.90
35894;DHT22;21994;48.204;16.516;2022-10-24T08:23:32;14.80;99.90
35894;DHT22;21994;48.204;16.516;2022-10-24T08:25:58;14.80;99.90
35894;DHT22;21994;48.204;16.516;2022-10-24T08:28:24;15.30;99.90
35894;DHT22;21994;48.204;16.516;2022-10-24T08:31:04;15.80;99.90
35894;DHT22;21994;48.204;16.516;2022-10-24T08:33:31;16.30;99.90
35894;DHT22;21994;48.204;16.516;2022-10-24T08:36:04;16.80;99.90
35894;DHT22;21994;48.204;16.516;2022-10-24T08:38:32;17.30;99.90
35894;DHT22;21994;48.204;16.516;2022-10-24T08:40:59;17.70;99.90
35894;DHT22;21994;48.204;16.516;2022-10-24T08:43:25;17.90;99.90
35894;DHT22;21994;48.204;16.516;2022-10-24T08:49:07;18.70;99.90
35894;DHT22;21994;48.204;16.516;2022-10-24T08:52:02;18.90;99.90
35894;DHT22;21994;48.204;16.516;2022-10-24T08:54:38;18.50;99.90
35894;DHT22;21994;48.204;16.516;2022-10-24T08:57:08;18.70;99.90
35894;DHT22;21994;48.204;16.516;2022-10-24T08:59:47;19.40;99.90
35894;DHT22;21994;48.204;16.516;2022-10-24T09:02:23;19.90;99.90
35894;DHT22;21994;48.204;16.516;2022-10-24T09:04:59;19.20;99.90
35894;DHT22;21994;48.204;16.516;2022-10-24T09:07:28;18.50;99.90
35894;DHT22;21994;48.204;16.516;2022-10-24T09:10:16;17.90;99.90
35894;DHT22;21994;48.204;16.516;2022-10-24T09:12:45;17.30;99.90
35894;DHT22;21994;48.204;16.516;2022-10-24T09:15:24;17.00;99.90
35894;DHT22;21994;48.204;16.516;2022-10-24T09:17:52;16.90;99.90
35894;DHT22;21994;48.204;16.516;2022-10-24T09:20:23;16.80;99.90
35894;DHT22;21994;48.204;16.516;2022-10-24T09:22:58;16.70;99.90
35894;DHT22;21994;48.204;16.516;2022-10-24T09:25:32;16.70;99.90
35894;DHT22;21994;48.204;16.516;2022-10-24T09:28:04;16.60;99.90
35894;DHT22;21994;48.204;16.516;2022-10-24T09:30:31;16.60;99.90
35894;DHT22;21994;48.204;16.516;2022-10-24T09:32:58;16.60;99.90
35894;DHT22;21994;48.204;16.516;2022-10-24T09:35:29;16.70;99.90
35894;DHT22;21994;48.204;16.516;2022-10-24T09:38:24;16.60;99.90
35894;DHT22;21994;48.204;16.516;2022-10-24T09:40:51;16.60;99.90
35894;DHT22;21994;48.204;16.516;2022-10-24T09:43:23;16.60;99.90
35894;DHT22;21994;48.204;16.516;2022-10-24T09:46:02;16.60;99.90
35894;DHT22;21994;48.204;16.516;2022-10-24T09:51:30;16.80;99.90
35894;DHT22;21994;48.204;16.516;2022-10-24T09:56:47;16.80;99.90
35894;DHT22;21994;48.204;16.516;2022-10-24T10:04:41;16.90;99.90
35894;DHT22;21994;48.204;16.516;2022-10-24T10:07:12;16.90;99.90
35894;DHT22;21994;48.204;16.516;2022-10-24T10:09:53;16.80;99.90
35894;DHT22;21994;48.204;16.516;2022-10-24T10:12:24;16.90;99.90
35894;DHT22;21994;48.204;16.516;2022-10-24T10:14:54;16.80;99.90
35894;DHT22;21994;48.204;16.516;2022-10-24T10:17:25;16.90;99.90
35894;DHT22;21994;48.204;16.516;2022-10-24T10:19:53;17.00;99.90
35894;DHT22;21994;48.204;16.516;2022-10-24T10:22:31;17.00;99.90
35894;DHT22;21994;48.204;16.516;2022-10-24T10:24:59;17.10;99.90
35894;DHT22;21994;48.204;16.516;2022-10-24T10:30:27;17.20;99.90
35894;DHT22;21994;48.204;16.516;2022-10-24T10:33:15;17.30;99.90
35894;DHT22;21994;48.204;16.516;2022-10-24T10:36:10;17.30;99.90
35894;DHT22;21994;48.204;16.516;2022-10-24T10:44:34;17.40;99.90
35894;DHT22;21994;48.204;16.516;2022-10-24T10:50:27;17.70;99.90
35894;DHT22;21994;48.204;16.516;2022-10-24T10:53:42;17.90;99.90
35894;DHT22;21994;48.204;16.516;2022-10-24T11:07:32;18.00;99.90
35894;DHT22;21994;48.204;16.516;2022-10-24T11:10:08;18.10;99.90
35894;DHT22;21994;48.204;16.516;2022-10-24T11:12:39;18.10;99.90
35894;DHT22;21994;48.204;16.516;2022-10-24T11:15:23;18.10;99.90
35894;DHT22;21994;48.204;16.516;2022-10-24T11:20:47;18.20;99.90
35894;DHT22;21994;48.204;16.516;2022-10-24T11:23:33;18.20;99.90
35894;DHT22;21994;48.204;16.516;2022-10-24T11:31:47;18.30;99.90
35894;DHT22;21994;48.204;16.516;2022-10-24T11:34:20;18.50;99.90
35894;DHT22;21994;48.204;16.516;2022-10-24T11:37:04;18.80;99.90
35894;DHT22;21994;48.204;16.516;2022-10-24T11:39:33;18.90;99.90
35894;DHT22;21994;48.204;16.516;2022-10-24T11:42:20;19.00;99.90
35894;DHT22;21994;48.204;16.516;2022-10-24T11:45:14;19.00;99.90
35894;DHT22;21994;48.204;16.516;2022-10-24T11:59:15;19.50;99.90
35894;DHT22;21994;48.204;16.516;2022-10-24T12:19:14;20.00;99.90
35894;DHT22;21994;48.204;16.516;2022-10-24T12:21:56;20.10;99.90
35894;DHT22;21994;48.204;16.516;2022-10-24T12:24:34;20.00;99.90
35894;DHT22;21994;48.204;16.516;2022-10-24T12:27:37;19.80;99.90
35894;DHT22;21994;48.204;16.516;2022-10-24T12:30:18;19.70;99.90
35894;DHT22;21994;48.204;16.516;2022-10-24T12:33:23;19.70;99.90
35894;DHT22;21994;48.204;16.516;2022-10-24T12:35:54;19.60;99.90
35894;DHT22;21994;48.204;16.516;2022-10-24T12:41:00;19.50;99.90
35894;DHT22;21994;48.204;16.516;2022-10-24T12:43:43;19.50;99.90
35894;DHT22;21994;48.204;16.516;2022-10-24T12:49:28;19.60;99.90
35894;DHT22;21994;48.204;16.516;2022-10-24T12:51:40;19.60;99.90
35894;DHT22;21994;48.204;16.516;2022-10-24T12:59:19;19.70;99.90
35894;DHT22;21994;48.204;16.516;2022-10-24T13:01:47;19.70;99.90
35894;DHT22;21994;48.204;16.516;2022-10-24T13:07:44;19.90;99.90
35894;DHT22;21994;48.204;16.516;2022-10-24T13:10:42;20.00;99.90
35894;DHT22;21994;48.204;16.516;2022-10-24T13:16:02;19.90;99.90
35894;DHT22;21994;48.204;16.516;2022-10-24T13:32:37;19.80;99.90
35894;DHT22;21994;48.204;16.516;2022-10-24T13:34:52;19.70;99.90
35894;DHT22;21994;48.204;16.516;2022-10-24T13:37:24;19.70;99.90
35894;DHT22;21994;48.204;16.516;2022-10-24T13:40:45;19.60;99.90
35894;DHT22;21994;48.204;16.516;2022-10-24T13:43:03;19.60;99.90
35894;DHT22;21994;48.204;16.516;2022-10-24T13:48:22;19.50;99.90
35894;DHT22;21994;48.204;16.516;2022-10-24T13:51:06;19.30;99.90
35894;DHT22;21994;48.204;16.516;2022-10-24T13:53:51;19.10;99.90
35894;DHT22;21994;48.204;16.516;2022-10-24T13:56:19;19.00;99.90
35894;DHT22;21994;48.204;16.516;2022-10-24T13:58:45;18.80;99.90
35894;DHT22;21994;48.204;16.516;2022-10-24T14:01:21;18.70;99.90
35894;DHT22;21994;48.204;16.516;2022-10-24T14:03:57;18.60;99.90
35894;DHT22;21994;48.204;16.516;2022-10-24T14:06:28;18.60;99.90
35894;DHT22;21994;48.204;16.516;2022-10-24T14:09:00;18.70;99.90
35894;DHT22;21994;48.204;16.516;2022-10-24T14:11:29;19.00;99.90
35894;DHT22;21994;48.204;16.516;2022-10-24T14:14:00;19.20;99.90
35894;DHT22;21994;48.204;16.516;2022-10-24T14:16:29;19.40;99.90
35894;DHT22;21994;48.204;16.516;2022-10-24T14:19:23;19.40;99.90
35894;DHT22;21994;48.204;16.516;2022-10-24T14:21:50;19.20;99.90
35894;DHT22;21994;48.204;16.516;2022-10-24T14:24:21;19.10;99.90
35894;DHT22;21994;48.204;16.516;2022-10-24T14:26:49;18.80;99.90
35894;DHT22;21994;48.204;16.516;2022-10-24T14:29:29;18.60;99.90
35894;DHT22;21994;48.204;16.516;2022-10-24T14:32:04;18.50;99.90
35894;DHT22;21994;48.204;16.516;2022-10-24T14:34:36;18.50;99.90
35894;DHT22;21994;48.204;16.516;2022-10-24T14:37:04;18.40;99.90
35894;DHT22;21994;48.204;16.516;2022-10-24T14:39:36;18.30;99.90
35894;DHT22;21994;48.204;16.516;2022-10-24T14:42:03;18.30;99.90
35894;DHT22;21994;48.204;16.516;2022-10-24T14:44:29;18.30;99.90
35894;DHT22;21994;48.204;16.516;2022-10-24T14:47:04;18.30;99.90
35894;DHT22;21994;48.204;16.516;2022-10-24T14:49:51;18.20;99.90
35894;DHT22;21994;48.204;16.516;2022-10-24T14:55:01;18.20;99.90
35894;DHT22;21994;48.204;16.516;2022-10-24T14:57:50;18.10;99.90
35894;DHT22;21994;48.204;16.516;2022-10-24T15:00:33;18.20;99.90
35894;DHT22;21994;48.204;16.516;2022-10-24T15:03:01;18.00;99.90
35894;DHT22;21994;48.204;16.516;2022-10-24T15:05:30;18.00;99.90
35894;DHT22;21994;48.204;16.516;2022-10-24T15:08:01;17.90;99.90
35894;DHT22;21994;48.204;16.516;2022-10-24T15:10:43;17.90;99.90
35894;DHT22;21994;48.204;16.516;2022-10-24T15:21:00;17.40;99.90
35894;DHT22;21994;48.204;16.516;2022-10-24T15:23:35;17.20;99.90
35894;DHT22;21994;48.204;16.516;2022-10-24T15:26:26;17.20;99.90
35894;DHT22;21994;48.204;16.516;2022-10-24T15:31:31;17.00;99.90
35894;DHT22;21994;48.204;16.516;2022-10-24T15:33:59;16.80;99.90
35894;DHT22;21994;48.204;16.516;2022-10-24T15:36:32;16.80;99.90
35894;DHT22;21994;48.204;16.516;2022-10-24T15:39:06;16.70;99.90
35894;DHT22;21994;48.204;16.516;2022-10-24T15:41:35;16.70;99.90
35894;DHT22;21994;48.204;16.516;2022-10-24T15:44:12;16.80;99.90
35894;DHT22;21994;48.204;16.516;2022-10-24T15:46:40;17.00;99.90
35894;DHT22;21994;48.204;16.516;2022-10-24T15:49:06;16.90;99.90
35894;DHT22;21994;48.204;16.516;2022-10-24T15:51:32;16.80;99.90
35894;DHT22;21994;48.204;16.516;2022-10-24T15:54:01;16.60;99.90
35894;DHT22;21994;48.204;16.516;2022-10-24T15:56:27;16.60;99.90
35894;DHT22;21994;48.204;16.516;2022-10-24T15:58:55;16.50;99.90
35894;DHT22;21994;48.204;16.516;2022-10-24T16:01:29;16.40;99.90
35894;DHT22;21994;48.204;16.516;2022-10-24T16:03:57;16.40;99.90
35894;DHT22;21994;48.204;16.516;2022-10-24T16:06:23;16.30;99.90
35894;DHT22;21994;48.204;16.516;2022-10-24T16:08:50;16.20;99.90
35894;DHT22;21994;48.204;16.516;2022-10-24T16:11:16;16.20;99.90
35894;DHT22;21994;48.204;16.516;2022-10-24T16:13:42;16.10;99.90
35894;DHT22;21994;48.204;16.516;2022-10-24T16:16:08;16.10;99.90
35894;DHT22;21994;48.204;16.516;2022-10-24T16:18:34;16.10;99.90
35894;DHT22;21994;48.204;16.516;2022-10-24T16:21:00;16.10;99.90
35894;DHT22;21994;48.204;16.516;2022-10-24T16:23:27;16.00;99.90
35894;DHT22;21994;48.204;16.516;2022-10-24T16:25:52;16.10;99.90
35894;DHT22;21994;48.204;16.516;2022-10-24T16:28:18;16.10;99.90
35894;DHT22;21994;48.204;16.516;2022-10-24T16:30:45;16.10;99.90
35894;DHT22;21994;48.204;16.516;2022-10-24T16:33:12;16.00;99.90
35894;DHT22;21994;48.204;16.516;2022-10-24T16:35:42;16.00;99.90
35894;DHT22;21994;48.204;16.516;2022-10-24T16:38:08;16.00;99.90
35894;DHT22;21994;48.204;16.516;2022-10-24T16:40:39;16.00;99.90
35894;DHT22;21994;48.204;16.516;2022-10-24T16:43:08;15.90;99.90
35894;DHT22;21994;48.204;16.516;2022-10-24T16:45:35;15.90;99.90
35894;DHT22;21994;48.204;16.516;2022-10-24T16:48:00;15.90;99.90
35894;DHT22;21994;48.204;16.516;2022-10-24T16:50:27;15.80;99.90
35894;DHT22;21994;48.204;16.516;2022-10-24T16:53:02;15.80;99.90
35894;DHT22;21994;48.204;16.516;2022-10-24T16:55:29;15.80;99.90
35894;DHT22;21994;48.204;16.516;2022-10-24T16:57:56;15.90;99.90
35894;DHT22;21994;48.204;16.516;2022-10-24T17:00:23;15.80;99.90
35894;DHT22;21994;48.204;16.516;2022-10-24T17:02:52;15.80;99.90
35894;DHT22;21994;48.204;16.516;2022-10-24T17:05:23;15.70;99.90
35894;DHT22;21994;48.204;16.516;2022-10-24T17:07:50;15.70;99.90
35894;DHT22;21994;48.204;16.516;2022-10-24T17:10:16;15.70;99.90
35894;DHT22;21994;48.204;16.516;2022-10-24T17:12:43;15.70;99.90
35894;DHT22;21994;48.204;16.516;2022-10-24T17:15:12;15.70;99.90
35894;DHT22;21994;48.204;16.516;2022-10-24T17:17:38;15.60;99.90
35894;DHT22;21994;48.204;16.516;2022-10-24T17:20:05;15.60;99.90
35894;DHT22;21994;48.204;16.516;2022-10-24T17:22:34;15.70;99.90
35894;DHT22;21994;48.204;16.516;2022-10-24T17:25:01;15.60;99.90
35894;DHT22;21994;48.204;16.516;2022-10-24T17:27:27;15.60;99.90
35894;DHT22;21994;48.204;16.516;2022-10-24T17:29:53;15.60;99.90
35894;DHT22;21994;48.204;16.516;2022-10-24T17:32:18;15.70;99.90
35894;DHT22;21994;48.204;16.516;2022-10-24T17:34:45;15.70;99.90
35894;DHT22;21994;48.204;16.516;2022-10-24T17:37:28;15.70;99.90
35894;DHT22;21994;48.204;16.516;2022-10-24T17:40:15;15.70;99.90
35894;DHT22;21994;48.204;16.516;2022-10-24T17:42:43;15.60;99.90
35894;DHT22;21994;48.204;16.516;2022-10-24T17:45:20;15.60;99.90
35894;DHT22;21994;48.204;16.516;2022-10-24T17:47:47;15.60;99.90
35894;DHT22;21994;48.204;16.516;2022-10-24T17:50:14;15.60;99.90
35894;DHT22;21994;48.204;16.516;2022-10-24T17:52:41;15.60;99.90